Time;durP1;ratioP1;P1;durP2;ratioP2;P2;SDS_P1;SDS_P2;PMS_P1;PMS_P2;Temp;Humidity;BMP_temperature;BMP_pressure;BME280_temperature;BME280_humidity;BME280_pressure;Samples;Min_cycle;Max_cycle;Signal;HPM_P1;HPM_P2
2022/07/22 00:02:26;;;;;;;18.80;16.93;;;20.10;99.90;;;;;;5112577;28;20477;-70
2022/07/22 00:05:16;;;;;;;17.73;16.23;;;20.10;99.90;;;;;;5105582;28;20472;-70
2022/07/22 00:08:05;;;;;;;17.40;15.90;;;20.10;99.90;;;;;;5111600;28;20440;-70
2022/07/22 00:10:53;;;;;;;17.00;15.40;;;20.00;99.90;;;;;;5110896;28;20959;-70
2022/07/22 00:13:41;;;;;;;19.03;17.43;;;20.00;99.90;;;;;;5108756;28;20449;-69
2022/07/22 00:16:30;;;;;;;17.97;16.37;;;20.00;99.90;;;;;;5100073;28;20452;-70
2022/07/22 00:19:18;;;;;;;17.17;15.10;;;20.00;99.90;;;;;;5110496;28;20471;-70
2022/07/22 00:22:08;;;;;;;17.33;15.67;;;19.90;99.90;;;;;;5103465;28;20494;-70
2022/07/22 00:24:56;;;;;;;19.70;17.00;;;19.80;99.90;;;;;;5112420;28;20537;-70
2022/07/22 00:27:44;;;;;;;20.13;18.03;;;19.70;99.90;;;;;;5110664;28;20955;-70
2022/07/22 00:30:35;;;;;;;19.00;17.20;;;19.60;99.90;;;;;;5105358;27;20436;-69
2022/07/22 00:33:23;;;;;;;18.63;16.83;;;19.60;99.90;;;;;;5110198;27;21760;-70
2022/07/22 00:36:12;;;;;;;19.33;17.43;;;19.50;99.90;;;;;;5108975;28;20501;-70
2022/07/22 00:39:01;;;;;;;16.87;15.07;;;19.40;99.90;;;;;;5103260;28;20825;-70
2022/07/22 00:41:50;;;;;;;18.10;16.10;;;19.30;99.90;;;;;;5108470;28;20489;-70
2022/07/22 00:44:38;;;;;;;17.33;15.33;;;19.20;99.90;;;;;;5109895;28;20470;-70
2022/07/22 00:47:27;;;;;;;12.67;11.37;;;19.20;99.90;;;;;;5103569;27;20458;-70
2022/07/22 00:50:16;;;;;;;10.67;9.57;;;19.10;99.90;;;;;;5110070;28;20958;-71
2022/07/22 00:53:05;;;;;;;9.83;8.83;;;19.10;99.90;;;;;;5110011;28;20570;-70
2022/07/22 00:55:56;;;;;;;9.20;8.30;;;19.10;99.90;;;;;;5111021;28;20472;-70
2022/07/22 00:58:45;;;;;;;7.50;6.80;;;19.00;99.90;;;;;;5108807;28;20552;-71
2022/07/22 01:01:33;;;;;;;6.87;6.17;;;18.90;99.90;;;;;;5109023;28;20483;-70
2022/07/22 01:04:22;;;;;;;6.50;5.90;;;18.90;99.90;;;;;;5111867;27;20471;-70
2022/07/22 01:07:10;;;;;;;5.97;5.43;;;18.80;99.90;;;;;;5103224;28;20448;-71
2022/07/22 01:09:59;;;;;;;3.20;3.00;;;18.80;99.90;;;;;;5108274;28;20871;-71
2022/07/22 01:12:48;;;;;;;3.60;3.30;;;18.70;99.90;;;;;;5111267;28;20828;-69
2022/07/22 01:15:36;;;;;;;3.03;2.70;;;18.60;99.90;;;;;;5112301;22;20917;-74
2022/07/22 01:18:25;;;;;;;2.50;2.17;;;18.60;99.90;;;;;;5066837;28;20891;-75
2022/07/22 01:21:15;;;;;;;3.17;2.90;;;18.60;99.90;;;;;;5067962;28;20438;-75
2022/07/22 01:24:05;;;;;;;4.67;2.80;;;18.40;99.90;;;;;;5074686;28;20457;-74
2022/07/22 01:26:53;;;;;;;4.67;3.20;;;18.40;99.90;;;;;;5075694;28;20564;-75
2022/07/22 01:29:41;;;;;;;3.20;3.00;;;18.30;99.90;;;;;;5086899;28;20445;-74
2022/07/22 01:32:30;;;;;;;4.57;3.27;;;18.20;99.90;;;;;;5085490;28;20856;-75
2022/07/22 01:35:18;;;;;;;3.33;3.03;;;18.20;99.90;;;;;;5087652;28;20439;-76
2022/07/22 01:38:09;;;;;;;4.23;3.80;;;18.10;99.90;;;;;;5085501;28;20449;-75
2022/07/22 01:40:57;;;;;;;4.80;3.60;;;18.00;99.90;;;;;;5091122;28;20535;-74
2022/07/22 01:43:45;;;;;;;6.27;4.93;;;17.90;99.90;;;;;;5074930;28;21049;-75
2022/07/22 01:46:34;;;;;;;5.17;3.90;;;17.80;99.90;;;;;;5086715;28;20460;-75
2022/07/22 01:49:22;;;;;;;5.40;4.20;;;17.80;99.90;;;;;;5093652;28;20444;-74
2022/07/22 01:52:11;;;;;;;4.93;4.23;;;17.80;99.90;;;;;;5087147;28;20514;-74
2022/07/22 01:55:00;;;;;;;6.00;5.30;;;17.80;99.90;;;;;;5087880;28;20507;-75
2022/07/22 01:57:48;;;;;;;7.83;5.43;;;17.70;99.90;;;;;;5087846;28;20520;-74
2022/07/22 02:00:37;;;;;;;11.13;7.53;;;17.70;99.90;;;;;;5091504;28;20561;-74
2022/07/22 02:03:25;;;;;;;11.10;7.27;;;17.60;99.90;;;;;;5087701;28;20579;-75
2022/07/22 02:06:14;;;;;;;9.57;7.10;;;17.50;99.90;;;;;;5093455;28;20465;-75
2022/07/22 02:09:05;;;;;;;9.80;6.83;;;17.50;99.90;;;;;;5091902;28;20502;-74
2022/07/22 02:11:55;;;;;;;8.23;5.87;;;17.40;99.90;;;;;;5089488;28;20530;-74
2022/07/22 02:14:43;;;;;;;7.03;5.27;;;17.40;99.90;;;;;;5086914;28;20474;-74
2022/07/22 02:17:33;;;;;;;8.13;5.60;;;17.30;99.90;;;;;;5077596;28;20500;-75
2022/07/22 02:20:21;;;;;;;8.40;4.90;;;17.30;99.90;;;;;;5090194;28;20619;-74
2022/07/22 02:23:11;;;;;;;7.03;5.43;;;17.30;99.90;;;;;;5074494;28;20449;-74
2022/07/22 02:26:00;;;;;;;5.50;4.30;;;17.20;99.90;;;;;;5083672;28;20464;-74
2022/07/22 02:28:49;;;;;;;8.13;4.50;;;17.20;99.90;;;;;;5088290;28;20527;-74
2022/07/22 02:31:38;;;;;;;5.77;4.97;;;17.20;99.90;;;;;;5082411;28;20468;-74
2022/07/22 02:34:26;;;;;;;6.70;3.90;;;17.20;99.90;;;;;;5099865;28;20812;-74
2022/07/22 02:37:15;;;;;;;5.57;3.70;;;17.20;99.90;;;;;;5081366;28;20473;-74
2022/07/22 02:40:04;;;;;;;6.33;3.57;;;17.20;99.90;;;;;;5090752;28;20517;-74
2022/07/22 02:42:53;;;;;;;4.40;3.20;;;17.10;99.90;;;;;;5091183;28;20562;-74
2022/07/22 02:45:45;;;;;;;9.60;3.67;;;17.10;99.90;;;;;;5087103;28;20465;-74
2022/07/22 02:48:33;;;;;;;4.47;3.20;;;17.10;99.90;;;;;;5082658;28;20476;-74
2022/07/22 02:51:22;;;;;;;8.13;3.70;;;17.10;99.90;;;;;;5090360;28;20541;-73
2022/07/22 02:54:11;;;;;;;6.60;3.97;;;17.10;99.90;;;;;;5087517;28;20454;-74
2022/07/22 02:57:01;;;;;;;7.47;2.90;;;17.00;99.90;;;;;;5086952;28;20555;-74
2022/07/22 02:59:50;;;;;;;6.00;3.30;;;17.00;99.90;;;;;;5091835;28;20473;-74
2022/07/22 03:02:40;;;;;;;5.60;3.20;;;17.00;99.90;;;;;;5091179;28;20529;-74
2022/07/22 03:05:28;;;;;;;6.00;2.87;;;17.00;99.90;;;;;;5088035;28;21102;-73
2022/07/22 03:08:16;;;;;;;6.23;3.33;;;17.00;99.90;;;;;;5092936;28;20590;-74
2022/07/22 03:11:08;;;;;;;6.87;3.20;;;17.00;99.90;;;;;;5091053;28;20869;-74
2022/07/22 03:13:56;;;;;;;6.87;2.57;;;17.00;99.90;;;;;;5089603;28;20433;-74
2022/07/22 03:16:44;;;;;;;8.17;3.17;;;16.90;99.90;;;;;;5083008;28;20563;-74
2022/07/22 03:19:35;;;;;;;7.27;2.90;;;16.90;99.90;;;;;;5092177;28;20473;-74
2022/07/22 03:22:23;;;;;;;7.23;3.27;;;16.90;99.90;;;;;;5091210;28;20553;-74
2022/07/22 03:25:11;;;;;;;6.73;3.03;;;16.90;99.90;;;;;;5076083;28;20491;-74
2022/07/22 03:28:00;;;;;;;5.93;2.70;;;16.90;99.90;;;;;;5090613;28;20461;-74
2022/07/22 03:30:49;;;;;;;5.07;2.80;;;16.90;99.90;;;;;;5086822;28;20425;-74
2022/07/22 03:33:37;;;;;;;3.93;2.50;;;16.80;99.90;;;;;;5082408;28;21039;-73
2022/07/22 03:36:27;;;;;;;3.13;2.53;;;16.80;99.90;;;;;;5091918;28;20500;-74
2022/07/22 03:39:16;;;;;;;5.17;3.30;;;16.80;99.90;;;;;;5093305;28;20464;-74
2022/07/22 03:42:05;;;;;;;4.87;3.20;;;16.80;99.90;;;;;;5083097;28;20518;-74
2022/07/22 03:44:53;;;;;;;8.00;2.80;;;16.80;99.90;;;;;;5092161;28;20506;-74
2022/07/22 03:47:42;;;;;;;5.00;3.00;;;16.80;99.90;;;;;;5085727;28;20458;-74
2022/07/22 03:50:30;;;;;;;5.40;3.13;;;16.70;99.90;;;;;;5092255;28;20478;-74
2022/07/22 03:53:20;;;;;;;4.47;2.80;;;16.70;99.90;;;;;;5081011;28;20535;-73
2022/07/22 03:56:11;;;;;;;6.87;2.90;;;16.80;99.90;;;;;;5092703;28;20559;-74
2022/07/22 03:58:59;;;;;;;3.73;2.97;;;16.70;99.90;;;;;;5095678;28;20447;-74
2022/07/22 04:01:48;;;;;;;2.80;2.53;;;16.70;99.90;;;;;;5085500;28;20449;-74
2022/07/22 04:04:38;;;;;;;5.37;2.67;;;16.70;99.90;;;;;;5089202;28;20459;-74
2022/07/22 04:07:27;;;;;;;3.60;2.63;;;16.70;99.90;;;;;;5087643;28;21089;-74
2022/07/22 04:10:16;;;;;;;3.30;3.00;;;16.70;99.90;;;;;;5090726;28;20878;-74
2022/07/22 04:13:04;;;;;;;3.97;2.97;;;16.70;99.90;;;;;;5083826;28;20933;-74
2022/07/22 04:15:53;;;;;;;4.80;2.97;;;16.60;99.90;;;;;;5090743;28;21335;-74
2022/07/22 04:18:41;;;;;;;6.60;3.10;;;16.70;99.90;;;;;;5090198;28;20448;-74
2022/07/22 04:21:30;;;;;;;2.77;2.57;;;16.80;99.90;;;;;;5088769;28;20554;-74
2022/07/22 04:24:18;;;;;;;9.37;3.40;;;16.80;99.90;;;;;;5079768;28;20949;-74
2022/07/22 04:27:07;;;;;;;4.80;3.23;;;16.70;99.90;;;;;;5091843;28;20994;-74
2022/07/22 04:29:56;;;;;;;5.50;2.80;;;16.70;99.90;;;;;;5091442;28;20614;-73
2022/07/22 04:32:44;;;;;;;6.43;3.20;;;16.70;99.90;;;;;;5088985;28;20599;-73
2022/07/22 04:35:32;;;;;;;3.87;2.50;;;16.70;99.90;;;;;;5079697;28;20488;-74
2022/07/22 04:38:20;;;;;;;3.70;2.80;;;16.70;99.90;;;;;;5089845;28;20498;-74
2022/07/22 04:41:09;;;;;;;6.07;3.20;;;16.70;99.90;;;;;;5089240;28;20520;-74
2022/07/22 04:43:59;;;;;;;4.43;2.80;;;16.70;99.90;;;;;;5079834;28;20425;-74
2022/07/22 04:46:47;;;;;;;5.77;2.90;;;16.70;99.90;;;;;;5097765;28;20542;-74
2022/07/22 04:49:36;;;;;;;3.93;2.73;;;16.70;99.90;;;;;;5089231;28;20849;-73
2022/07/22 04:52:24;;;;;;;4.10;2.60;;;16.70;99.90;;;;;;5086416;28;20438;-74
2022/07/22 04:55:14;;;;;;;3.03;2.33;;;16.70;99.90;;;;;;5090139;28;20445;-73
2022/07/22 04:58:10;;;;;;;3.80;2.30;;;16.70;99.90;;;;;;5090524;28;20483;-74
2022/07/22 05:01:05;;;;;;;3.90;2.67;;;16.70;99.90;;;;;;5089049;28;20461;-73
2022/07/22 05:03:54;;;;;;;2.80;2.20;;;16.70;99.90;;;;;;5092388;28;20449;-74
2022/07/22 05:06:42;;;;;;;3.47;2.17;;;16.70;99.90;;;;;;5090061;28;20963;-74
2022/07/22 05:09:30;;;;;;;4.67;2.50;;;16.70;99.90;;;;;;5087562;28;21092;-74
2022/07/22 05:12:19;;;;;;;6.10;2.40;;;16.70;99.90;;;;;;5089136;28;20441;-74
2022/07/22 05:15:08;;;;;;;3.70;2.47;;;16.70;99.90;;;;;;5080584;28;20500;-73
2022/07/22 05:17:58;;;;;;;3.00;2.70;;;16.70;99.90;;;;;;5085845;28;20980;-74
2022/07/22 05:20:46;;;;;;;6.43;3.27;;;16.70;99.90;;;;;;5093726;28;20625;-74
2022/07/22 05:23:34;;;;;;;8.07;3.20;;;16.60;99.90;;;;;;5090852;28;21088;-74
2022/07/22 05:26:24;;;;;;;5.13;3.20;;;16.60;99.90;;;;;;5086208;28;20508;-74
2022/07/22 05:29:13;;;;;;;7.67;4.00;;;16.60;99.90;;;;;;5083377;28;20449;-74
2022/07/22 05:32:02;;;;;;;10.53;3.77;;;16.60;99.90;;;;;;5077848;28;20888;-74
2022/07/22 05:34:52;;;;;;;6.30;3.43;;;16.50;99.90;;;;;;5088470;28;20516;-76
2022/07/22 05:37:40;;;;;;;8.03;4.10;;;16.60;99.90;;;;;;5100879;28;20581;-73
2022/07/22 05:40:29;;;;;;;10.50;3.63;;;16.60;99.90;;;;;;5093608;28;20621;-75
2022/07/22 05:43:17;;;;;;;5.17;3.63;;;16.60;99.90;;;;;;5087957;28;20463;-74
2022/07/22 05:46:07;;;;;;;7.43;3.70;;;16.60;99.90;;;;;;5090030;28;20465;-74
2022/07/22 05:48:55;;;;;;;11.17;4.10;;;16.60;99.90;;;;;;5090163;28;20445;-74
2022/07/22 05:51:46;;;;;;;4.60;3.20;;;16.60;99.90;;;;;;5077073;28;20471;-74
2022/07/22 05:54:37;;;;;;;6.87;2.97;;;16.60;99.90;;;;;;5095718;28;20490;-74
2022/07/22 05:57:26;;;;;;;4.73;3.10;;;16.60;99.90;;;;;;5090978;28;20553;-73
2022/07/22 06:00:15;;;;;;;6.97;3.40;;;16.70;99.90;;;;;;5080410;28;20534;-74
2022/07/22 06:03:03;;;;;;;10.50;4.47;;;16.70;99.90;;;;;;5084327;28;20453;-74
2022/07/22 06:05:51;;;;;;;9.37;3.53;;;16.70;99.90;;;;;;5073828;28;20560;-74
2022/07/22 06:08:44;;;;;;;8.07;3.60;;;16.80;99.90;;;;;;5095075;28;20836;-73
2022/07/22 06:11:40;;;;;;;6.47;3.57;;;16.80;99.90;;;;;;5085039;28;20488;-73
2022/07/22 06:14:28;;;;;;;5.37;3.00;;;16.80;99.90;;;;;;5086004;28;20532;-74
2022/07/22 06:17:16;;;;;;;10.53;3.83;;;16.80;99.90;;;;;;5085002;28;20594;-74
2022/07/22 06:20:06;;;;;;;4.90;3.80;;;16.90;99.90;;;;;;5091198;28;21017;-73
2022/07/22 06:22:54;;;;;;;6.40;3.60;;;16.80;99.90;;;;;;5087780;28;20534;-73
2022/07/22 06:25:44;;;;;;;4.63;3.23;;;16.90;99.90;;;;;;5090155;28;20461;-74
2022/07/22 06:28:32;;;;;;;8.47;3.73;;;16.90;99.90;;;;;;5094016;28;20455;-74
2022/07/22 06:31:21;;;;;;;7.33;3.80;;;16.90;99.90;;;;;;5093775;28;20522;-74
2022/07/22 06:34:09;;;;;;;7.30;4.00;;;16.90;99.90;;;;;;5094468;28;20452;-74
2022/07/22 06:36:59;;;;;;;6.73;4.03;;;16.90;99.90;;;;;;5093106;28;20465;-74
2022/07/22 06:39:47;;;;;;;11.13;4.30;;;17.00;99.90;;;;;;5090418;28;20478;-74
2022/07/22 06:42:37;;;;;;;7.53;3.23;;;17.10;99.90;;;;;;5093240;28;20529;-74
2022/07/22 06:45:26;;;;;;;8.80;4.00;;;17.10;99.90;;;;;;5093916;28;20550;-75
2022/07/22 06:48:15;;;;;;;7.20;3.60;;;17.20;99.90;;;;;;5094282;28;20589;-74
2022/07/22 06:51:03;;;;;;;7.00;4.10;;;17.30;99.90;;;;;;5093513;28;20445;-74
2022/07/22 06:53:52;;;;;;;5.07;3.60;;;17.30;99.90;;;;;;5093202;28;20886;-74
2022/07/22 06:56:40;;;;;;;5.83;3.50;;;17.30;99.90;;;;;;5093491;28;20465;-74
2022/07/22 06:59:30;;;;;;;6.03;3.60;;;17.40;99.90;;;;;;5091469;28;20544;-74
2022/07/22 07:02:19;;;;;;;9.03;3.57;;;17.40;99.90;;;;;;5098135;28;20537;-74
2022/07/22 07:05:08;;;;;;;4.87;3.10;;;17.40;99.90;;;;;;5091058;28;20445;-74
2022/07/22 07:08:07;;;;;;;7.80;3.70;;;17.40;99.90;;;;;;5084026;28;20509;-74
2022/07/22 07:10:55;;;;;;;6.93;3.80;;;17.50;99.90;;;;;;5093227;28;20477;-74
2022/07/22 07:13:44;;;;;;;5.73;3.67;;;17.50;99.90;;;;;;5085707;28;20452;-74
2022/07/22 07:16:34;;;;;;;11.07;4.17;;;17.50;99.90;;;;;;5104231;28;20498;-74
2022/07/22 07:19:22;;;;;;;5.20;3.67;;;17.50;99.90;;;;;;5117599;22;20447;-76
2022/07/22 07:22:11;;;;;;;9.03;4.77;;;17.50;99.90;;;;;;5073710;28;21074;-74
2022/07/22 07:25:04;;;;;;;8.40;3.63;;;17.50;99.90;;;;;;5067568;28;20820;-75
2022/07/22 07:28:10;;;;;;;7.10;3.50;;;17.50;99.90;;;;;;5080754;28;21049;-74
2022/07/22 07:30:59;;;;;;;7.27;3.40;;;17.60;99.90;;;;;;5061377;28;20531;-74
2022/07/22 07:33:49;;;;;;;7.60;3.47;;;17.50;99.90;;;;;;5043402;28;20450;-75
2022/07/22 07:36:37;;;;;;;8.17;3.67;;;17.50;99.90;;;;;;5054028;28;20577;-74
2022/07/22 07:39:26;;;;;;;8.10;3.90;;;17.60;99.90;;;;;;5065437;28;20474;-75
2022/07/22 07:42:14;;;;;;;7.40;3.80;;;17.60;99.90;;;;;;5051347;28;20984;-74
2022/07/22 07:45:04;;;;;;;6.33;3.77;;;17.60;99.90;;;;;;5052423;28;20817;-74
2022/07/22 07:47:52;;;;;;;7.57;3.53;;;17.60;99.90;;;;;;5050892;28;20836;-74
2022/07/22 07:50:43;;;;;;;6.20;3.27;;;17.70;99.90;;;;;;5068378;28;20965;-73
2022/07/22 07:53:32;;;;;;;6.00;3.77;;;17.70;99.90;;;;;;5052492;28;20994;-73
2022/07/22 07:56:20;;;;;;;8.47;3.70;;;17.70;99.90;;;;;;5046750;28;20446;-74
2022/07/22 07:59:08;;;;;;;6.93;3.80;;;17.70;99.90;;;;;;5058068;28;20446;-74
2022/07/22 08:02:13;;;;;;;11.43;3.70;;;17.70;99.90;;;;;;5052696;28;20497;-73
2022/07/22 08:05:02;;;;;;;5.43;3.37;;;17.80;99.90;;;;;;5041451;28;20905;-72
2022/07/22 08:07:52;;;;;;;7.80;3.80;;;17.80;99.90;;;;;;5052708;28;20461;-73
2022/07/22 08:10:41;;;;;;;7.43;2.90;;;17.80;99.90;;;;;;5054468;28;20477;-73
2022/07/22 08:13:47;;;;;;;4.93;3.20;;;17.80;99.90;;;;;;5048249;28;20439;-73
2022/07/22 08:16:36;;;;;;;9.90;3.30;;;17.80;99.90;;;;;;5049641;28;20591;-73
2022/07/22 08:19:25;;;;;;;5.60;3.20;;;17.90;99.90;;;;;;5051313;28;20451;-74
2022/07/22 08:22:16;;;;;;;5.53;3.00;;;17.90;99.90;;;;;;5052415;28;20818;-74
2022/07/22 08:25:08;;;;;;;8.80;3.20;;;17.90;99.90;;;;;;5060098;28;20488;-74
2022/07/22 08:27:57;;;;;;;7.97;2.80;;;18.00;99.90;;;;;;5052231;28;20516;-73
2022/07/22 08:30:46;;;;;;;9.07;2.93;;;18.00;99.90;;;;;;5053681;28;20997;-74
2022/07/22 08:33:34;;;;;;;5.97;2.93;;;18.00;99.90;;;;;;5057516;28;20458;-73
2022/07/22 08:36:23;;;;;;;5.23;2.77;;;18.00;99.90;;;;;;5050307;28;20438;-73
2022/07/22 08:39:11;;;;;;;3.90;2.63;;;18.10;99.90;;;;;;5051008;28;20447;-73
2022/07/22 08:42:07;;;;;;;5.43;2.63;;;18.20;99.90;;;;;;5053347;28;20852;-74
2022/07/22 08:45:04;;;;;;;6.73;2.80;;;18.20;99.90;;;;;;5050374;28;20462;-73
2022/07/22 08:47:54;;;;;;;6.57;3.13;;;18.20;99.90;;;;;;5057291;28;20454;-74
2022/07/22 08:50:43;;;;;;;4.93;2.70;;;18.20;99.90;;;;;;5056388;28;20864;-73
2022/07/22 08:53:31;;;;;;;4.20;2.50;;;18.30;99.90;;;;;;5048452;28;21072;-73
2022/07/22 08:56:20;;;;;;;8.07;3.03;;;18.30;99.90;;;;;;5044404;28;21044;-73
2022/07/22 08:59:09;;;;;;;6.83;3.10;;;18.30;99.90;;;;;;5052885;28;20455;-73
2022/07/22 09:02:05;;;;;;;6.87;2.60;;;18.30;99.90;;;;;;5051983;28;20473;-73
2022/07/22 09:04:58;;;;;;;5.77;2.63;;;18.30;99.90;;;;;;5059476;28;20470;-74
2022/07/22 09:08:07;;;;;;;7.97;2.90;;;18.50;99.90;;;;;;5047631;28;20524;-73
2022/07/22 09:10:55;;;;;;;6.40;2.93;;;18.50;99.90;;;;;;5045319;28;20617;-73
2022/07/22 09:13:45;;;;;;;5.00;2.90;;;18.50;99.90;;;;;;5048755;28;20597;-73
2022/07/22 09:16:43;;;;;;;5.90;2.87;;;18.60;99.90;;;;;;5059269;28;20953;-77
2022/07/22 09:19:32;;;;;;;4.10;2.30;;;18.70;99.90;;;;;;5048162;28;20863;-75
2022/07/22 09:22:38;;;;;;;4.53;2.50;;;18.80;99.90;;;;;;5045358;28;20463;-74
2022/07/22 09:25:31;;;;;;;3.97;2.13;;;18.80;99.90;;;;;;5049312;28;20477;-74
2022/07/22 09:28:22;;;;;;;6.73;3.00;;;18.80;99.90;;;;;;5048379;28;20509;-74
2022/07/22 09:31:26;;;;;;;4.43;2.30;;;18.90;99.90;;;;;;5049529;28;20476;-74
2022/07/22 09:34:27;;;;;;;6.33;2.40;;;19.00;99.90;;;;;;5052423;28;20955;-74
2022/07/22 09:37:16;;;;;;;4.80;2.27;;;19.00;99.90;;;;;;5050718;28;20446;-74
2022/07/22 09:40:14;;;;;;;3.60;2.20;;;18.90;99.90;;;;;;5048322;28;20473;-74
2022/07/22 09:43:05;;;;;;;5.27;2.60;;;19.00;99.90;;;;;;5047491;28;20482;-75
2022/07/22 09:45:56;;;;;;;8.13;3.10;;;19.00;99.90;;;;;;5050072;28;20520;-74
2022/07/22 09:48:45;;;;;;;4.33;2.60;;;19.00;99.90;;;;;;5047486;28;20450;-74
2022/07/22 09:51:35;;;;;;;4.30;2.30;;;19.00;99.90;;;;;;5052268;28;20438;-75
2022/07/22 09:54:24;;;;;;;2.63;1.83;;;19.00;99.90;;;;;;5053411;28;20449;-74
2022/07/22 09:57:13;;;;;;;2.97;2.43;;;19.10;99.90;;;;;;5048793;28;20458;-72
2022/07/22 10:00:03;;;;;;;4.90;2.50;;;19.20;99.90;;;;;;5050976;28;20471;-73
2022/07/22 10:02:53;;;;;;;6.67;2.23;;;19.20;99.90;;;;;;5046416;28;20563;-73
2022/07/22 10:05:43;;;;;;;5.57;1.90;;;19.20;99.90;;;;;;5056654;28;20474;-73
2022/07/22 10:08:35;;;;;;;4.23;2.40;;;19.10;99.90;;;;;;5052588;28;20541;-73
2022/07/22 10:11:24;;;;;;;4.50;2.37;;;19.20;99.90;;;;;;5055162;28;20596;-74
2022/07/22 10:14:13;;;;;;;5.40;2.50;;;19.20;99.90;;;;;;5058276;28;20586;-74
2022/07/22 10:17:09;;;;;;;4.60;2.30;;;19.10;99.90;;;;;;5046788;28;20446;-73
2022/07/22 10:19:59;;;;;;;5.43;2.30;;;19.10;99.90;;;;;;5054827;28;20470;-73
2022/07/22 10:22:50;;;;;;;3.03;2.10;;;19.10;99.90;;;;;;5049573;28;21113;-73
2022/07/22 10:25:54;;;;;;;4.47;2.33;;;19.10;99.90;;;;;;5049420;28;20548;-74
2022/07/22 10:28:42;;;;;;;5.57;2.23;;;19.10;99.90;;;;;;5061297;28;20495;-74
2022/07/22 10:31:30;;;;;;;6.00;2.10;;;19.00;99.90;;;;;;5051947;28;20645;-74
2022/07/22 10:34:20;;;;;;;4.20;2.47;;;19.00;99.90;;;;;;5055346;28;20508;-74
2022/07/22 10:37:40;;;;;;;3.77;2.10;;;19.00;99.90;;;;;;5060645;28;20540;-74
2022/07/22 10:40:31;;;;;;;4.70;2.20;;;18.90;99.90;;;;;;5048406;28;20478;-73
2022/07/22 10:43:23;;;;;;;3.00;2.20;;;18.90;99.90;;;;;;5058278;28;20641;-75
2022/07/22 10:46:12;;;;;;;5.70;2.10;;;18.90;99.90;;;;;;5056163;28;20589;-73
2022/07/22 10:49:01;;;;;;;4.50;2.40;;;18.90;99.90;;;;;;5050816;28;20474;-74
2022/07/22 10:52:10;;;;;;;8.60;2.50;;;19.00;99.90;;;;;;5055804;28;20459;-73
2022/07/22 10:55:19;;;;;;;6.83;2.47;;;18.80;99.90;;;;;;5055673;28;20455;-74
2022/07/22 10:58:42;;;;;;;5.57;2.30;;;18.90;99.90;;;;;;5051117;28;20828;-74
2022/07/22 11:01:32;;;;;;;4.47;1.80;;;18.90;99.90;;;;;;5036203;28;20518;-74
2022/07/22 11:04:23;;;;;;;4.80;2.27;;;19.00;99.90;;;;;;5047573;28;20569;-74
2022/07/22 11:07:13;;;;;;;5.10;1.97;;;18.90;99.90;;;;;;5056510;28;20525;-72
2022/07/22 11:10:10;;;;;;;2.80;1.90;;;18.90;99.90;;;;;;5045851;28;20478;-72
2022/07/22 11:13:11;;;;;;;4.27;2.20;;;19.00;99.90;;;;;;5054096;28;20446;-73
2022/07/22 11:16:16;;;;;;;3.80;1.80;;;19.10;99.90;;;;;;5051538;28;20867;-73
2022/07/22 11:19:06;;;;;;;4.80;2.00;;;19.10;99.90;;;;;;5058272;28;20442;-73
2022/07/22 11:21:56;;;;;;;3.20;1.90;;;19.20;99.90;;;;;;5052987;28;20985;-72
2022/07/22 11:24:49;;;;;;;3.27;1.90;;;19.20;99.90;;;;;;5042644;28;20470;-73
2022/07/22 11:27:39;;;;;;;6.87;2.27;;;19.30;99.90;;;;;;5048760;28;20457;-72
2022/07/22 11:30:28;;;;;;;3.47;1.97;;;19.30;99.90;;;;;;5057508;28;20475;-73
2022/07/22 11:33:18;;;;;;;5.53;1.93;;;19.40;99.90;;;;;;5059522;28;20800;-73
2022/07/22 11:36:11;;;;;;;7.83;2.17;;;19.50;99.90;;;;;;5046925;28;20496;-74
2022/07/22 11:38:59;;;;;;;4.47;2.00;;;19.40;99.90;;;;;;5052724;28;20873;-74
2022/07/22 11:41:47;;;;;;;4.60;2.30;;;19.50;99.90;;;;;;5048143;28;20623;-73
2022/07/22 11:44:38;;;;;;;4.10;2.77;;;19.50;99.90;;;;;;5058473;28;20542;-73
2022/07/22 11:47:26;;;;;;;7.93;2.43;;;19.40;99.90;;;;;;5051593;28;20544;-73
2022/07/22 11:50:16;;;;;;;5.03;2.10;;;19.40;99.90;;;;;;5055101;28;20467;-73
2022/07/22 11:53:05;;;;;;;4.43;1.97;;;19.40;99.90;;;;;;5054344;28;20965;-73
2022/07/22 11:55:58;;;;;;;3.47;2.17;;;19.40;99.90;;;;;;5044037;28;20456;-74
2022/07/22 11:58:49;;;;;;;2.60;2.00;;;19.50;99.90;;;;;;5049340;28;20532;-74
2022/07/22 12:01:38;;;;;;;4.77;2.33;;;19.60;99.90;;;;;;5054218;28;20981;-74
2022/07/22 12:04:27;;;;;;;2.00;1.80;;;19.70;99.90;;;;;;5049080;28;20557;-74
2022/07/22 12:07:17;;;;;;;4.70;2.37;;;19.80;99.90;;;;;;5050967;28;20574;-74
2022/07/22 12:10:08;;;;;;;5.33;2.40;;;19.80;99.90;;;;;;5050600;28;20465;-74
2022/07/22 12:12:57;;;;;;;3.00;1.83;;;19.70;99.90;;;;;;5053355;28;20467;-73
2022/07/22 12:15:46;;;;;;;4.70;2.50;;;19.60;99.90;;;;;;5051581;28;20480;-73
2022/07/22 12:18:40;;;;;;;3.63;2.07;;;19.60;99.90;;;;;;5053616;28;20551;-74
2022/07/22 12:21:30;;;;;;;2.33;2.00;;;19.50;99.90;;;;;;5051031;28;21048;-73
2022/07/22 12:24:29;;;;;;;3.17;2.00;;;19.60;99.90;;;;;;5052247;28;20471;-73
2022/07/22 12:27:20;;;;;;;3.90;2.23;;;19.60;99.90;;;;;;5055262;28;20515;-73
2022/07/22 12:30:13;;;;;;;2.60;1.87;;;19.70;99.90;;;;;;5050022;28;20502;-74
2022/07/22 12:33:01;;;;;;;2.20;2.00;;;19.70;99.90;;;;;;5049274;28;20443;-73
2022/07/22 12:36:01;;;;;;;4.20;2.60;;;19.80;99.90;;;;;;5051361;28;20974;-73
2022/07/22 12:38:50;;;;;;;3.63;2.40;;;19.80;99.90;;;;;;5050532;28;20571;-73
2022/07/22 12:41:49;;;;;;;4.87;2.40;;;19.80;99.90;;;;;;5048026;28;20441;-73
2022/07/22 12:44:38;;;;;;;2.80;2.07;;;19.80;99.90;;;;;;5054013;28;20564;-73
2022/07/22 12:47:48;;;;;;;2.97;1.93;;;19.90;99.90;;;;;;5047735;28;20447;-73
2022/07/22 12:50:39;;;;;;;4.17;1.87;;;20.10;99.90;;;;;;5052959;28;20490;-74
2022/07/22 12:53:29;;;;;;;3.63;1.93;;;20.10;99.90;;;;;;5050943;28;20558;-73
2022/07/22 12:56:20;;;;;;;2.63;1.63;;;20.10;99.90;;;;;;5045396;28;20964;-74
2022/07/22 12:59:10;;;;;;;1.90;1.70;;;20.20;99.90;;;;;;5058043;28;20817;-74
2022/07/22 13:01:58;;;;;;;5.73;2.10;;;20.30;99.90;;;;;;5047879;28;20558;-74
2022/07/22 13:04:47;;;;;;;4.63;1.80;;;20.40;99.90;;;;;;5053531;28;21038;-76
2022/07/22 13:07:35;;;;;;;4.57;2.10;;;20.50;99.90;;;;;;5043585;28;20442;-74
2022/07/22 13:10:27;;;;;;;3.13;2.10;;;20.40;99.90;;;;;;5042298;28;20909;-74
2022/07/22 13:13:15;;;;;;;2.10;1.57;;;20.40;99.90;;;;;;5051203;28;21022;-73
2022/07/22 13:16:05;;;;;;;3.07;1.60;;;20.40;99.90;;;;;;5054243;28;20466;-74
2022/07/22 13:18:54;;;;;;;2.10;1.70;;;20.50;99.90;;;;;;5065592;28;20953;-74
2022/07/22 13:21:43;;;;;;;2.60;1.80;;;20.40;99.90;;;;;;5064688;22;20587;-75
2022/07/22 13:24:32;;;;;;;2.27;1.67;;;20.40;99.90;;;;;;5051645;28;20469;-75
2022/07/22 13:27:20;;;;;;;3.97;1.90;;;20.50;99.90;;;;;;5070827;28;20976;-76
2022/07/22 13:30:09;;;;;;;3.93;1.83;;;20.60;99.90;;;;;;5060730;28;20545;-76
2022/07/22 13:32:59;;;;;;;4.13;2.00;;;20.70;99.90;;;;;;5051749;28;20585;-76
2022/07/22 13:35:47;;;;;;;6.00;2.03;;;20.80;99.90;;;;;;5049247;28;20537;-76
2022/07/22 13:38:36;;;;;;;5.20;2.00;;;20.80;99.90;;;;;;5046728;28;20482;-76
2022/07/22 13:41:28;;;;;;;1.80;1.70;;;20.80;99.90;;;;;;5054396;28;20561;-75
2022/07/22 13:44:16;;;;;;;3.63;2.20;;;20.70;99.90;;;;;;5049326;28;20588;-75
2022/07/22 13:47:05;;;;;;;2.60;1.87;;;20.80;99.90;;;;;;5053067;28;20537;-75
2022/07/22 13:49:56;;;;;;;4.43;2.40;;;20.80;99.90;;;;;;5055086;28;20515;-76
2022/07/22 13:52:46;;;;;;;2.67;2.00;;;20.90;99.90;;;;;;5056275;28;20585;-75
2022/07/22 13:55:34;;;;;;;3.27;2.00;;;20.90;99.90;;;;;;5046956;28;20443;-76
2022/07/22 13:58:23;;;;;;;2.43;1.70;;;21.00;99.90;;;;;;5044837;28;20977;-76
2022/07/22 14:01:12;;;;;;;2.77;1.70;;;21.10;99.90;;;;;;5052033;28;20584;-76
2022/07/22 14:04:02;;;;;;;2.90;1.63;;;21.20;99.90;;;;;;5050662;28;21038;-76
2022/07/22 14:06:52;;;;;;;2.27;1.90;;;21.30;99.90;;;;;;5063022;28;20537;-76
2022/07/22 14:09:40;;;;;;;1.77;1.60;;;21.40;99.90;;;;;;5054657;28;20450;-76
2022/07/22 14:12:29;;;;;;;3.90;2.10;;;21.40;99.90;;;;;;5053969;28;20462;-76
2022/07/22 14:15:17;;;;;;;3.20;2.07;;;21.40;99.90;;;;;;5055659;28;20512;-76
2022/07/22 14:18:08;;;;;;;1.77;1.67;;;21.30;99.90;;;;;;5050972;28;20443;-76
2022/07/22 14:20:56;;;;;;;2.20;1.70;;;21.30;99.90;;;;;;5055513;28;20470;-76
2022/07/22 14:23:46;;;;;;;6.10;1.67;;;21.20;99.90;;;;;;5063485;28;21051;-75
2022/07/22 14:26:35;;;;;;;3.23;1.70;;;21.20;99.90;;;;;;5057475;28;20521;-76
2022/07/22 14:29:23;;;;;;;2.83;2.10;;;21.20;99.90;;;;;;5045125;28;20445;-75
2022/07/22 14:32:12;;;;;;;1.97;1.77;;;21.10;99.90;;;;;;5052813;28;20512;-75
2022/07/22 14:35:05;;;;;;;3.27;1.90;;;21.20;99.90;;;;;;5052883;28;20457;-75
2022/07/22 14:37:54;;;;;;;4.90;2.33;;;21.30;99.90;;;;;;5047356;28;20439;-75
2022/07/22 14:40:44;;;;;;;1.90;1.80;;;21.40;99.90;;;;;;5052773;28;20442;-75
2022/07/22 14:43:32;;;;;;;2.60;1.80;;;21.30;99.90;;;;;;5053873;28;20538;-75
2022/07/22 14:46:27;;;;;;;2.90;1.90;;;21.20;99.90;;;;;;5052438;28;20481;-75